Aviation Digital Data Service (ADDS)

Output produced by METARs form (1557 UTC 23 January 2019)
found at http://www.aviationweather.gov/metar/data/
 
Forecast for: WMKP (PENANG/BAYAN LEP, MY)
Text: TAF WMKP 231100Z 2312/2412 VRB03KT 9000 FEW025 SCT140 BKN270
Forecast period: 1200 UTC 23 January 2019 to 0500 UTC 24 January 2019
Forecast type: FROM: standard forecast or significant change
Winds: variable direction winds at 3 MPH (3 knots; 1.5 m/s)
Visibility: 6 miles (9 km)
Ceiling: 27000 feet AGL
Clouds: few clouds at 2500 feet AGL
scattered clouds at 14000 feet AGL
broken clouds at 27000 feet AGL
Weather: no significant weather forecast for this period
Text: BECMG 2405/2407 22010KT FEW020 SCT140 BKN270
Forecast period: 0500 to 1200 UTC 24 January 2019
Forecast type: BECOMING: Conditions expected to become as follows by 0700 UTC 24 January 2019
Winds: from the SW (220 degrees) at 12 MPH (10 knots; 5.1 m/s)
Visibility: 6 miles (9 km)
Ceiling: 27000 feet AGL
Clouds: few clouds at 2000 feet AGL
scattered clouds at 14000 feet AGL
broken clouds at 27000 feet AGL
Weather: no significant weather forecast for this period